Time;durP1;ratioP1;P1;durP2;ratioP2;P2;SDS_P1;SDS_P2;PMS_P1;PMS_P2;Temp;Humidity;BMP_temperature;BMP_pressure;BME280_temperature;BME280_humidity;BME280_pressure;Samples;Min_cycle;Max_cycle;Signal;HPM_P1;HPM_P2
2022/07/24 00:01:58;;;;;;;;;10.67;10.67;;;;;22.85;57.32;101056.23;111340;1257;20321;-84
2022/07/24 00:04:25;;;;;;;;;7.67;7.67;;;;;22.79;57.24;101057.86;111411;1257;19322;-84
2022/07/24 00:06:52;;;;;;;;;6.00;6.00;;;;;22.75;57.21;101058.46;111258;1258;19795;-83
2022/07/24 00:09:20;;;;;;;;;9.33;9.33;;;;;22.74;56.95;101054.11;111343;1257;21742;-83
2022/07/24 00:11:47;;;;;;;;;7.00;7.00;;;;;22.72;56.85;101062.86;111310;1258;19267;-83
2022/07/24 00:14:15;;;;;;;;;7.33;7.33;;;;;22.66;57.03;101061.88;111314;1257;21655;-83
2022/07/24 00:16:42;;;;;;;;;7.00;7.00;;;;;22.80;56.60;101063.42;111245;1257;20362;-83
2022/07/24 00:19:09;;;;;;;;;6.67;6.67;;;;;22.87;56.36;101065.83;111339;1258;19227;-85
2022/07/24 00:21:37;;;;;;;;;10.00;10.00;;;;;22.90;56.24;101068.18;111277;1258;19642;-83
2022/07/24 00:24:04;;;;;;;;;15.50;14.00;;;;;22.93;55.99;101071.07;111334;1257;20382;-83
2022/07/24 00:26:31;;;;;;;;;14.00;12.00;;;;;22.94;55.68;101069.19;111316;1258;19292;-83
2022/07/24 00:28:58;;;;;;;;;10.00;10.00;;;;;22.80;55.89;101074.87;111320;1257;19859;-82
2022/07/24 00:31:26;;;;;;;;;10.00;10.00;;;;;22.65;56.23;101075.14;111401;1258;20271;-82
2022/07/24 00:33:53;;;;;;;;;7.50;7.00;;;;;22.64;56.40;101076.21;111311;1258;21055;-82
2022/07/24 00:36:20;;;;;;;;;7.00;7.00;;;;;22.70;56.37;101078.22;111395;1257;19577;-85
2022/07/24 00:38:48;;;;;;;;;9.00;8.00;;;;;22.66;56.23;101077.59;111327;1258;20356;-84
2022/07/24 00:41:15;;;;;;;;;10.00;10.00;;;;;22.51;56.62;101081.35;111249;1258;20473;-84
2022/07/24 00:43:42;;;;;;;;;6.00;6.00;;;;;22.45;56.82;101075.52;111274;1258;19545;-84
2022/07/24 00:46:09;;;;;;;;;6.67;6.67;;;;;22.59;56.63;101074.05;111314;1257;20315;-84
2022/07/24 00:48:37;;;;;;;;;7.33;7.00;;;;;22.82;56.28;101077.32;111165;1256;19208;-84
2022/07/24 00:51:04;;;;;;;;;8.00;8.00;;;;;22.85;56.05;101079.38;111169;1258;20845;-83
2022/07/24 00:53:31;;;;;;;;;7.00;7.00;;;;;22.80;55.90;101077.39;111315;1258;20438;-83
2022/07/24 00:55:59;;;;;;;;;7.50;7.50;;;;;22.64;56.14;101080.52;111188;1257;19223;-81
2022/07/24 00:58:26;;;;;;;;;20.33;17.00;;;;;22.62;56.44;101080.80;111367;1257;22771;-83
2022/07/24 01:00:54;;;;;;;;;27.33;26.33;;;;;22.45;56.65;101076.51;111287;1257;20719;-85
2022/07/24 01:03:21;;;;;;;;;16.67;15.67;;;;;22.42;56.59;101083.70;111279;1258;19312;-84
2022/07/24 01:05:49;;;;;;;;;16.67;15.33;;;;;22.37;57.01;101079.93;111297;1258;19499;-84
2022/07/24 01:08:16;;;;;;;;;11.33;11.33;;;;;22.57;56.62;101082.48;111286;1258;20324;-84
2022/07/24 01:10:43;;;;;;;;;12.00;11.33;;;;;22.71;56.20;101085.77;111314;1258;22409;-84
2022/07/24 01:13:11;;;;;;;;;15.67;14.00;;;;;22.69;56.15;101087.61;111215;1258;19484;-83
2022/07/24 01:15:38;;;;;;;;;11.00;11.00;;;;;22.65;56.14;101088.77;111351;1257;20417;-84
2022/07/24 01:18:05;;;;;;;;;10.33;10.33;;;;;22.52;56.20;101093.13;111301;1258;19354;-84
2022/07/24 01:20:32;;;;;;;;;11.00;11.00;;;;;22.40;56.71;101091.37;111342;1258;19765;-84
2022/07/24 01:23:00;;;;;;;;;11.33;10.33;;;;;22.28;56.88;101091.35;111358;1258;20363;-82
2022/07/24 01:25:27;;;;;;;;;10.00;10.00;;;;;22.31;57.06;101092.46;111232;1258;19153;-85
2022/07/24 01:27:54;;;;;;;;;14.00;11.00;;;;;22.42;56.79;101094.89;111363;1258;19491;-85
2022/07/24 01:30:22;;;;;;;;;12.00;11.00;;;;;22.35;56.94;101094.95;111327;1258;20301;-84
2022/07/24 01:32:49;;;;;;;;;7.67;7.67;;;;;22.29;56.92;101097.92;111387;1258;19271;-84
2022/07/24 01:35:16;;;;;;;;;11.67;9.67;;;;;22.30;56.92;101098.20;111346;1257;20889;-83
2022/07/24 01:37:44;;;;;;;;;11.00;11.00;;;;;22.21;57.12;101098.14;111443;1257;20241;-84
2022/07/24 01:40:11;;;;;;;;;10.00;9.67;;;;;22.04;57.39;101094.05;111437;1257;20737;-83
2022/07/24 01:42:38;;;;;;;;;9.67;9.00;;;;;21.94;57.91;101092.13;111334;1258;19912;-84
2022/07/24 01:45:05;;;;;;;;;11.00;9.00;;;;;21.99;57.93;101093.73;111349;1257;21769;-84
2022/07/24 01:47:33;;;;;;;;;9.00;9.00;;;;;22.08;57.89;101097.23;111237;1258;25092;-85
2022/07/24 01:50:00;;;;;;;;;14.67;12.00;;;;;21.95;58.16;101095.82;111304;1258;27841;-83
2022/07/24 01:52:27;;;;;;;;;9.00;9.00;;;;;21.87;58.48;101100.95;111378;1258;20318;-84
2022/07/24 01:54:54;;;;;;;;;11.33;10.33;;;;;21.77;58.63;101097.42;111390;1257;19258;-86
2022/07/24 01:57:22;;;;;;;;;9.67;9.00;;;;;21.68;59.10;101097.85;111305;1257;19787;-84
2022/07/24 01:59:49;;;;;;;;;11.00;10.00;;;;;21.64;58.89;101094.70;111292;1258;20556;-83
2022/07/24 02:02:16;;;;;;;;;9.33;9.00;;;;;21.61;59.04;101093.77;111266;1258;19262;-83
2022/07/24 02:04:44;;;;;;;;;9.00;9.00;;;;;21.58;59.26;101091.36;111290;1257;20871;-83
2022/07/24 02:07:11;;;;;;;;;10.33;10.00;;;;;21.65;59.13;101089.54;111358;1257;21996;-83
2022/07/24 02:09:38;;;;;;;;;11.67;10.00;;;;;21.65;59.13;101090.26;111345;1257;19219;-84
2022/07/24 02:12:06;;;;;;;;;9.00;9.00;;;;;21.61;59.24;101083.24;111263;1258;22341;-83
2022/07/24 02:14:33;;;;;;;;;8.33;8.33;;;;;21.66;58.72;101085.95;111153;1258;20304;-83
2022/07/24 02:17:00;;;;;;;;;9.00;9.00;;;;;21.60;58.74;101082.67;111295;1257;19261;-85
2022/07/24 02:19:27;;;;;;;;;10.00;9.67;;;;;21.61;58.70;101081.03;111417;1258;21059;-83
2022/07/24 02:21:55;;;;;;;;;9.00;9.00;;;;;21.65;58.52;101083.20;111326;1257;20382;-83
2022/07/24 02:24:23;;;;;;;;;6.50;6.50;;;;;21.65;58.41;101079.70;111284;1258;20709;-83
2022/07/24 02:26:50;;;;;;;;;8.00;7.00;;;;;21.70;58.34;101078.55;111331;1258;19471;-83
2022/07/24 02:29:17;;;;;;;;;9.33;9.00;;;;;21.65;58.19;101079.55;111292;1257;20684;-83
2022/07/24 02:31:44;;;;;;;;;9.00;9.00;;;;;21.66;58.08;101079.38;111356;1257;25092;-83
2022/07/24 02:34:12;;;;;;;;;7.00;7.00;;;;;21.62;58.19;101078.23;111414;1257;19692;-83
2022/07/24 02:36:42;;;;;;;;;7.00;7.00;;;;;21.54;58.25;101082.78;111345;1257;20421;-83
2022/07/24 02:39:10;;;;;;;;;9.00;8.33;;;;;21.47;58.22;101084.11;111370;1258;19751;-83
2022/07/24 02:41:37;;;;;;;;;6.00;6.00;;;;;21.45;58.43;101080.55;111312;1258;33696;-83
2022/07/24 02:44:05;;;;;;;;;6.00;6.00;;;;;21.44;58.43;101083.17;111354;1258;20358;-84
2022/07/24 02:46:32;;;;;;;;;7.00;7.00;;;;;21.46;58.48;101080.15;111367;1257;20754;-83
2022/07/24 02:48:59;;;;;;;;;9.00;9.00;;;;;21.46;58.15;101083.61;111303;1257;19610;-83
2022/07/24 02:51:27;;;;;;;;;7.00;7.00;;;;;21.42;58.25;101081.27;111292;1257;21985;-83
2022/07/24 02:53:54;;;;;;;;;9.00;9.00;;;;;21.33;58.50;101074.23;111241;1257;21370;-82
2022/07/24 02:56:21;;;;;;;;;9.00;9.00;;;;;21.29;58.57;101078.27;111291;1258;19432;-85
2022/07/24 02:58:48;;;;;;;;;10.00;9.67;;;;;21.25;58.55;101086.76;111302;1258;20282;-83
2022/07/24 03:01:16;;;;;;;;;9.00;7.67;;;;;21.32;58.41;101087.75;111341;1258;19249;-83
2022/07/24 03:03:43;;;;;;;;;7.67;6.67;;;;;21.33;58.48;101090.38;111257;1257;21203;-83
2022/07/24 03:06:10;;;;;;;;;7.00;7.00;;;;;21.40;58.01;101095.08;111309;1258;22700;-83
2022/07/24 03:08:37;;;;;;;;;7.00;7.00;;;;;21.44;57.67;101096.54;111349;1258;21647;-83
2022/07/24 03:11:05;;;;;;;;;9.33;9.00;;;;;21.44;57.88;101096.63;111154;1258;22516;-82
2022/07/24 03:13:32;;;;;;;;;8.33;8.33;;;;;21.36;58.05;101104.21;111378;1258;20161;-82
2022/07/24 03:15:59;;;;;;;;;10.00;9.00;;;;;21.38;58.02;101104.04;111315;1258;19214;-83
2022/07/24 03:18:26;;;;;;;;;7.00;6.33;;;;;21.49;57.67;101103.07;111363;1258;31052;-84
2022/07/24 03:20:54;;;;;;;;;8.33;8.33;;;;;21.51;57.30;101100.48;111332;1258;20427;-84
2022/07/24 03:23:21;;;;;;;;;6.33;6.00;;;;;21.44;57.63;101098.69;111294;1258;19188;-84
2022/07/24 03:25:48;;;;;;;;;7.00;6.00;;;;;21.55;57.12;101093.55;111349;1257;19415;-83
2022/07/24 03:28:16;;;;;;;;;5.67;5.67;;;;;21.48;56.91;101096.25;111397;1258;21650;-83
2022/07/24 03:30:43;;;;;;;;;6.33;6.00;;;;;21.49;56.87;101096.19;111331;1258;19155;-84
2022/07/24 03:33:11;;;;;;;;;6.33;6.33;;;;;21.55;56.80;101100.61;111344;1258;19490;-84
2022/07/24 03:35:38;;;;;;;;;7.00;7.00;;;;;21.71;56.22;101104.25;111349;1258;20586;-83
2022/07/24 03:38:05;;;;;;;;;6.67;6.67;;;;;21.82;55.94;101107.57;111347;1258;19062;-83
2022/07/24 03:40:33;;;;;;;;;7.00;6.00;;;;;21.74;56.03;101107.02;111303;1258;19345;-83
2022/07/24 03:43:00;;;;;;;;;6.00;6.00;;;;;21.77;55.95;101109.96;111131;1257;22750;-83
2022/07/24 03:45:27;;;;;;;;;7.67;7.67;;;;;21.85;55.81;101109.43;111306;1257;19353;-83
2022/07/24 03:47:54;;;;;;;;;8.33;8.33;;;;;21.90;55.54;101105.02;111315;1257;19876;-83
2022/07/24 03:50:22;;;;;;;;;7.00;7.00;;;;;21.78;55.67;101104.78;111319;1257;20447;-84
2022/07/24 03:52:49;;;;;;;;;6.50;6.50;;;;;21.80;55.49;101104.16;111322;1258;19235;-83
2022/07/24 03:55:16;;;;;;;;;6.00;6.00;;;;;21.72;55.84;101105.08;111384;1258;20925;-83
2022/07/24 03:57:43;;;;;;;;;9.00;7.00;;;;;21.72;55.80;101103.98;111363;1257;20284;-83
2022/07/24 04:00:11;;;;;;;;;6.00;6.00;;;;;21.75;55.87;101103.11;111295;1258;19094;-84
2022/07/24 04:02:38;;;;;;;;;6.33;6.33;;;;;21.68;55.91;101100.45;111302;1257;19410;-83
2022/07/24 04:05:08;;;;;;;;;7.00;6.67;;;;;21.66;55.90;101101.40;111352;1257;20384;-83
2022/07/24 04:07:35;;;;;;;;;6.00;6.00;;;;;21.58;56.16;101101.90;111368;1257;19419;-83
2022/07/24 04:10:03;;;;;;;;;7.67;7.00;;;;;21.54;56.31;101102.40;111329;1257;19557;-83
2022/07/24 04:12:30;;;;;;;;;6.00;6.00;;;;;21.51;56.34;101104.47;111248;1258;23235;-83
2022/07/24 04:14:57;;;;;;;;;7.00;6.33;;;;;21.45;56.55;101107.92;111323;1258;19174;-84
2022/07/24 04:17:25;;;;;;;;;6.00;6.00;;;;;21.66;56.23;101105.52;111333;1257;19499;-83
2022/07/24 04:19:52;;;;;;;;;6.33;6.00;;;;;21.66;56.24;101109.69;111382;1258;20315;-83
2022/07/24 04:22:20;;;;;;;;;6.00;6.00;;;;;21.66;56.06;101113.75;111396;1257;19243;-83
2022/07/24 04:24:47;;;;;;;;;7.00;7.00;;;;;21.70;56.04;101114.29;111313;1258;19413;-84
2022/07/24 04:27:14;;;;;;;;;7.67;7.00;;;;;21.88;55.76;101113.95;111332;1258;23649;-84
2022/07/24 04:29:42;;;;;;;;;7.00;7.00;;;;;21.92;55.56;101115.31;111326;1257;20107;-84
2022/07/24 04:32:09;;;;;;;;;7.00;6.33;;;;;22.04;55.37;101117.38;111302;1258;19549;-84
2022/07/24 04:34:36;;;;;;;;;15.00;14.00;;;;;21.98;55.45;101116.21;111383;1257;20384;-84
2022/07/24 04:37:03;;;;;;;;;15.00;13.00;;;;;21.82;56.01;101115.20;111286;1257;23202;-84
2022/07/24 04:39:31;;;;;;;;;12.33;11.00;;;;;21.81;56.27;101114.64;111354;1258;21135;-84
2022/07/24 04:41:58;;;;;;;;;10.33;9.00;;;;;21.86;56.07;101111.44;111274;1258;20318;-84
2022/07/24 04:44:25;;;;;;;;;10.00;10.00;;;;;21.73;56.44;101112.91;111307;1257;23553;-83
2022/07/24 04:46:52;;;;;;;;;10.00;9.33;;;;;21.72;56.46;101113.42;111299;1258;23008;-83
2022/07/24 04:49:20;;;;;;;;;8.33;7.67;;;;;21.75;56.51;101112.40;111359;1257;20318;-83
2022/07/24 04:51:47;;;;;;;;;6.00;6.00;;;;;21.84;56.22;101117.31;111305;1257;19139;-83
2022/07/24 04:54:14;;;;;;;;;5.00;5.00;;;;;21.93;56.28;101116.13;111336;1258;19464;-83
2022/07/24 04:56:42;;;;;;;;;6.00;6.00;;;;;22.01;56.05;101121.05;111335;1257;20395;-85
2022/07/24 04:59:09;;;;;;;;;6.67;6.67;;;;;22.09;55.96;101117.52;111358;1257;19285;-85
2022/07/24 05:01:36;;;;;;;;;7.00;6.33;;;;;22.13;55.76;101119.80;111347;1258;19696;-83
2022/07/24 05:04:04;;;;;;;;;9.67;9.00;;;;;22.09;55.84;101120.95;111304;1258;20403;-83
2022/07/24 05:06:31;;;;;;;;;6.00;6.00;;;;;22.10;55.74;101124.31;111308;1258;23689;-83
2022/07/24 05:08:58;;;;;;;;;9.00;9.00;;;;;21.96;56.08;101125.23;111286;1258;19495;-82
2022/07/24 05:11:26;;;;;;;;;6.67;6.67;;;;;21.99;56.07;101126.75;111310;1257;20540;-82
2022/07/24 05:13:53;;;;;;;;;7.00;7.00;;;;;21.91;56.36;101131.08;111336;1258;22723;-84
2022/07/24 05:16:20;;;;;;;;;6.00;6.00;;;;;21.90;56.42;101133.78;111379;1257;21569;-83
2022/07/24 05:18:47;;;;;;;;;6.67;6.00;;;;;22.07;56.09;101137.45;111275;1258;23815;-86
2022/07/24 05:21:15;;;;;;;;;8.33;7.00;;;;;22.00;56.25;101135.69;111308;1258;21345;-83
2022/07/24 05:23:44;;;;;;;;;6.00;6.00;;;;;21.95;56.69;101136.21;111279;1257;22242;-85
2022/07/24 05:26:11;;;;;;;;;5.50;5.50;;;;;22.13;56.63;101141.30;111300;1258;20397;-83
2022/07/24 05:28:38;;;;;;;;;9.00;8.33;;;;;22.10;56.86;101145.83;111340;1257;23853;-84
2022/07/24 05:31:07;;;;;;;;;10.00;9.50;;;;;21.50;58.00;101144.66;111286;1256;19554;-83
2022/07/24 05:33:34;;;;;;;;;10.00;10.00;;;;;21.33;58.87;101144.34;111332;1258;20235;-83
2022/07/24 05:36:01;;;;;;;;;7.00;7.00;;;;;21.23;59.02;101145.83;111292;1257;19269;-82
2022/07/24 05:38:29;;;;;;;;;9.00;7.00;;;;;21.30;58.90;101143.97;111296;1256;20860;-82
2022/07/24 05:40:56;;;;;;;;;9.00;9.00;;;;;21.50;58.39;101142.23;111305;1258;20387;-83
2022/07/24 05:43:23;;;;;;;;;10.50;9.00;;;;;21.31;58.73;101142.00;111381;1257;19431;-81
2022/07/24 05:45:51;;;;;;;;;6.67;6.67;;;;;21.27;59.27;101145.98;111306;1257;24023;-81
2022/07/24 05:48:18;;;;;;;;;9.00;8.00;;;;;21.39;59.12;101141.89;111208;1255;20510;-79
2022/07/24 05:50:45;;;;;;;;;7.67;7.00;;;;;21.18;59.58;101146.21;111333;1255;19225;-80
2022/07/24 05:53:13;;;;;;;;;6.00;6.00;;;;;21.09;59.86;101150.77;111278;1255;19512;-81
2022/07/24 05:55:40;;;;;;;;;8.00;7.00;;;;;21.37;59.28;101146.84;111231;1255;21834;-81
2022/07/24 05:58:07;;;;;;;;;6.33;6.33;;;;;21.42;59.04;101143.55;111273;1257;19674;-83
2022/07/24 06:00:35;;;;;;;;;8.67;8.67;;;;;21.63;58.61;101139.90;111243;1258;22479;-82
2022/07/24 06:03:02;;;;;;;;;6.00;5.67;;;;;21.79;57.97;101140.59;111271;1255;22738;-83
2022/07/24 06:05:29;;;;;;;;;7.00;5.33;;;;;21.67;58.19;101138.92;111323;1255;19499;-83
2022/07/24 06:07:57;;;;;;;;;5.33;5.33;;;;;21.81;57.79;101144.10;111358;1255;19405;-82
2022/07/24 06:10:24;;;;;;;;;6.00;6.00;;;;;21.83;57.52;101147.84;111371;1255;20337;-83
2022/07/24 06:12:51;;;;;;;;;5.00;5.00;;;;;21.52;58.21;101148.04;111373;1255;19315;-82
2022/07/24 06:15:18;;;;;;;;;7.33;6.00;;;;;21.27;58.72;101151.41;111366;1255;21998;-82
2022/07/24 06:17:46;;;;;;;;;6.00;6.00;;;;;21.37;58.67;101150.41;111328;1255;22261;-82
2022/07/24 06:20:13;;;;;;;;;7.00;7.00;;;;;21.31;58.95;101154.73;111275;1258;19362;-84
2022/07/24 06:22:41;;;;;;;;;8.00;6.67;;;;;21.05;59.52;101156.33;111249;1258;19661;-82
2022/07/24 06:25:08;;;;;;;;;9.67;9.33;;;;;20.86;59.86;101157.00;111178;1258;20380;-82
2022/07/24 06:27:35;;;;;;;;;10.00;9.00;;;;;20.87;59.91;101162.33;111244;1258;19178;-84
2022/07/24 06:30:02;;;;;;;;;12.67;11.33;;;;;20.91;59.97;101162.84;111258;1257;22001;-84
2022/07/24 06:32:30;;;;;;;;;9.00;8.00;;;;;20.94;60.01;101162.44;111160;1258;23151;-83
2022/07/24 06:34:57;;;;;;;;;9.33;8.67;;;;;20.83;60.70;101165.75;111340;1258;23234;-82
2022/07/24 06:37:24;;;;;;;;;11.33;9.67;;;;;20.79;60.82;101166.29;111255;1256;23902;-82
2022/07/24 06:39:51;;;;;;;;;9.50;8.50;;;;;20.87;60.65;101168.11;111250;1255;20349;-82
2022/07/24 06:42:19;;;;;;;;;11.33;10.67;;;;;20.95;60.78;101166.05;111108;1258;19288;-82
2022/07/24 06:44:46;;;;;;;;;9.00;9.00;;;;;20.96;60.68;101168.80;111222;1255;20943;-82
2022/07/24 06:47:13;;;;;;;;;9.00;8.00;;;;;20.92;60.69;101172.45;111183;1257;20252;-82
2022/07/24 06:49:41;;;;;;;;;8.67;8.00;;;;;21.02;60.86;101175.19;111330;1258;19469;-82
2022/07/24 06:52:08;;;;;;;;;10.00;10.00;;;;;21.11;60.40;101179.45;111331;1257;21048;-82
2022/07/24 06:54:35;;;;;;;;;12.00;12.00;;;;;21.17;60.47;101176.98;111288;1257;21707;-82
2022/07/24 06:57:03;;;;;;;;;10.00;9.00;;;;;21.09;60.71;101181.52;111293;1258;23645;-82
2022/07/24 06:59:30;;;;;;;;;14.00;13.33;;;;;21.05;60.46;101177.75;111277;1258;19624;-85
2022/07/24 07:01:57;;;;;;;;;9.33;9.33;;;;;21.00;60.88;101177.61;111306;1256;22015;-82
2022/07/24 07:04:24;;;;;;;;;8.00;6.00;;;;;20.92;61.22;101178.74;111346;1256;19255;-84
2022/07/24 07:06:52;;;;;;;;;16.67;15.00;;;;;20.95;61.25;101178.92;111298;1258;19480;-85
2022/07/24 07:09:19;;;;;;;;;9.00;9.00;;;;;21.38;60.56;101180.31;111347;1258;21862;-84
2022/07/24 07:11:47;;;;;;;;;8.00;8.00;;;;;21.89;59.45;101180.98;111286;1257;19202;-84
2022/07/24 07:14:14;;;;;;;;;9.00;9.00;;;;;22.18;58.50;101178.11;111323;1258;19596;-86
2022/07/24 07:16:42;;;;;;;;;7.00;7.00;;;;;22.31;58.00;101183.50;111287;1257;20611;-85
2022/07/24 07:19:09;;;;;;;;;13.00;11.00;;;;;22.35;57.81;101181.91;111200;1257;19175;-84
2022/07/24 07:21:37;;;;;;;;;13.00;13.00;;;;;22.40;57.75;101181.71;111271;1257;19364;-84
2022/07/24 07:24:04;;;;;;;;;15.67;13.67;;;;;22.41;57.37;101178.54;111285;1258;21929;-84
2022/07/24 07:26:32;;;;;;;;;16.50;13.50;;;;;22.37;57.45;101179.39;111281;1257;19333;-85
2022/07/24 07:28:59;;;;;;;;;11.67;11.00;;;;;22.41;57.26;101181.61;111261;1258;23600;-84
2022/07/24 07:31:27;;;;;;;;;13.33;10.00;;;;;22.53;57.23;101179.09;111263;1257;20317;-82
2022/07/24 07:33:56;;;;;;;;;14.00;13.67;;;;;22.67;56.91;101177.80;111320;1257;19273;-83
2022/07/24 07:36:23;;;;;;;;;10.67;10.00;;;;;22.74;56.79;101175.41;111222;1258;23854;-85
2022/07/24 07:38:50;;;;;;;;;10.33;9.67;;;;;22.97;56.36;101173.80;111024;1258;20302;-84
2022/07/24 07:41:19;;;;;;;;;10.00;9.00;;;;;23.03;56.05;101172.73;110979;1258;245481;-82
2022/07/24 07:43:46;;;;;;;;;10.00;9.00;;;;;22.90;56.19;101180.42;111273;1257;24037;-82
2022/07/24 07:46:14;;;;;;;;;10.00;10.00;;;;;22.82;56.50;101181.58;111263;1258;20408;-83
2022/07/24 07:48:41;;;;;;;;;11.67;10.67;;;;;22.80;56.32;101184.48;111174;1258;19340;-82
2022/07/24 07:51:08;;;;;;;;;15.33;14.00;;;;;22.78;56.45;101184.81;111199;1258;23573;-84
2022/07/24 07:53:36;;;;;;;;;9.00;9.00;;;;;22.72;56.67;101182.30;111267;1257;20248;-82
2022/07/24 07:56:04;;;;;;;;;9.00;9.00;;;;;22.39;57.27;101184.80;111326;1257;23272;-83
2022/07/24 07:58:32;;;;;;;;;7.00;6.50;;;;;22.19;58.04;101185.08;111303;1258;19446;-83
2022/07/24 08:00:59;;;;;;;;;9.00;9.00;;;;;22.42;57.72;101184.75;111295;1258;20342;-83
2022/07/24 08:03:26;;;;;;;;;6.00;6.00;;;;;22.55;57.42;101183.09;111300;1257;22860;-82
2022/07/24 08:05:54;;;;;;;;;6.00;6.00;;;;;22.60;57.49;101183.91;111316;1257;19760;-84
2022/07/24 08:08:21;;;;;;;;;8.33;8.33;;;;;22.60;57.31;101192.66;111414;1257;20290;-82
2022/07/24 08:10:49;;;;;;;;;7.00;6.00;;;;;22.55;57.49;101188.55;111335;1257;19748;-80
2022/07/24 08:13:17;;;;;;;;;7.00;7.00;;;;;22.63;57.80;101191.24;111254;1258;20842;-82
2022/07/24 08:15:45;;;;;;;;;6.67;6.67;;;;;22.65;57.98;101193.52;111102;1257;20557;-82
2022/07/24 08:18:12;;;;;;;;;9.00;9.00;;;;;22.60;57.80;101193.05;111163;1258;19298;-82
2022/07/24 08:20:39;;;;;;;;;8.00;7.00;;;;;22.62;57.87;101201.52;111190;1258;21405;-84
2022/07/24 08:23:06;;;;;;;;;9.50;9.00;;;;;22.90;58.04;101200.30;111318;1257;21133;-87
2022/07/24 08:25:34;;;;;;;;;9.67;9.00;;;;;23.22;57.36;101204.95;111289;1258;19508;-83
2022/07/24 08:28:01;;;;;;;;;9.00;7.67;;;;;23.37;56.87;101210.42;111123;1257;19998;-84
2022/07/24 08:30:28;;;;;;;;;9.67;9.00;;;;;23.46;56.48;101218.05;111300;1257;20330;-84
2022/07/24 08:32:56;;;;;;;;;7.00;6.67;;;;;23.54;56.38;101219.17;111293;1257;19151;-85
2022/07/24 08:35:24;;;;;;;;;7.00;7.00;;;;;23.55;56.81;101223.00;111287;1257;19782;-92
2022/07/24 08:37:51;;;;;;;;;8.33;7.33;;;;;23.55;57.23;101222.91;111278;1257;20358;-84
2022/07/24 08:40:18;;;;;;;;;8.00;7.00;;;;;23.55;57.74;101225.40;111190;1257;20654;-84
2022/07/24 08:42:46;;;;;;;;;7.00;6.00;;;;;23.51;57.37;101218.42;111080;1258;19655;-82
2022/07/24 08:45:13;;;;;;;;;6.33;6.33;;;;;23.28;57.09;101225.73;111044;1258;22877;-82
2022/07/24 08:47:40;;;;;;;;;9.50;9.50;;;;;23.10;57.23;101222.78;111227;1257;20238;-83
2022/07/24 08:50:07;;;;;;;;;7.67;7.67;;;;;23.06;57.10;101219.23;111296;1257;19569;-85
2022/07/24 08:52:35;;;;;;;;;10.00;7.67;;;;;23.08;56.72;101224.60;111283;1258;22424;-84
2022/07/24 08:55:02;;;;;;;;;7.33;7.33;;;;;23.05;56.78;101220.76;111047;1258;19827;-83
2022/07/24 08:57:30;;;;;;;;;8.00;8.00;;;;;23.09;56.65;101219.07;111296;1257;19420;-83
2022/07/24 08:59:57;;;;;;;;;10.00;9.00;;;;;23.11;56.73;101223.77;111067;1258;20625;-84
2022/07/24 09:02:24;;;;;;;;;9.00;9.00;;;;;23.08;56.68;101234.06;110978;1259;19263;-82
2022/07/24 09:04:52;;;;;;;;;7.00;7.00;;;;;23.07;57.10;101231.83;111275;1258;22556;-82
2022/07/24 09:07:19;;;;;;;;;7.00;7.00;;;;;23.11;57.20;101231.02;111328;1258;20646;-82
2022/07/24 09:09:46;;;;;;;;;6.00;6.00;;;;;23.05;57.14;101226.84;110993;1258;19256;-82
2022/07/24 09:12:14;;;;;;;;;7.00;7.00;;;;;23.03;57.11;101226.14;111039;1258;23732;-82
2022/07/24 09:14:41;;;;;;;;;8.67;7.33;;;;;23.04;56.86;101224.95;111264;1258;20261;-82
2022/07/24 09:17:08;;;;;;;;;6.00;6.00;;;;;23.09;56.60;101224.51;111267;1258;19415;-82
2022/07/24 09:19:35;;;;;;;;;7.00;7.00;;;;;22.98;56.47;101220.70;111272;1258;24529;-84
2022/07/24 09:22:04;;;;;;;;;6.00;6.00;;;;;22.91;56.60;101220.19;111289;1258;21727;-84
2022/07/24 09:24:32;;;;;;;;;7.67;7.00;;;;;22.98;56.46;101217.22;111277;1258;20075;-83
2022/07/24 09:26:59;;;;;;;;;8.33;7.00;;;;;23.13;56.19;101225.25;111327;1258;19564;-83
2022/07/24 09:29:27;;;;;;;;;6.00;6.00;;;;;23.16;55.99;101224.38;111235;1258;21690;-83
2022/07/24 09:31:54;;;;;;;;;7.00;6.33;;;;;23.12;55.78;101225.93;111205;1258;19237;-83
2022/07/24 09:34:21;;;;;;;;;9.00;9.00;;;;;23.12;55.56;101228.38;111322;1258;21838;-83
2022/07/24 09:36:49;;;;;;;;;7.00;6.00;;;;;23.16;55.57;101229.00;111185;1258;20301;-83
2022/07/24 09:39:16;;;;;;;;;8.00;7.00;;;;;23.14;55.53;101229.69;111244;1258;19242;-83
2022/07/24 09:41:43;;;;;;;;;8.33;6.67;;;;;23.20;55.58;101225.38;111110;1258;19493;-83
2022/07/24 09:44:10;;;;;;;;;6.50;6.00;;;;;23.26;55.29;101227.02;111336;1258;20301;-83
2022/07/24 09:46:38;;;;;;;;;7.00;7.00;;;;;23.32;55.15;101225.27;111287;1258;19997;-83
2022/07/24 09:49:06;;;;;;;;;7.00;6.67;;;;;23.19;55.25;101226.25;111272;1258;19434;-81
2022/07/24 09:51:33;;;;;;;;;7.00;6.50;;;;;23.20;55.47;101232.66;111286;1258;20405;-82
2022/07/24 09:54:03;;;;;;;;;6.33;6.00;;;;;23.23;55.34;101229.10;111239;1256;19366;-84
2022/07/24 09:56:30;;;;;;;;;8.00;8.00;;;;;23.29;55.26;101228.39;111211;1258;19708;-82
2022/07/24 09:58:59;;;;;;;;;7.67;7.00;;;;;23.39;54.95;101231.88;111266;1258;21744;-82
2022/07/24 10:01:27;;;;;;;;;6.33;6.00;;;;;23.38;55.16;101235.31;111254;1258;22662;-82
2022/07/24 10:03:55;;;;;;;;;11.00;10.00;;;;;23.31;55.21;101239.77;111271;1258;21207;-82
2022/07/24 10:06:22;;;;;;;;;11.00;10.00;;;;;23.32;55.16;101238.23;111230;1258;23148;-84
2022/07/24 10:08:49;;;;;;;;;15.33;14.00;;;;;23.32;55.35;101236.33;111321;1258;24318;-84
2022/07/24 10:11:17;;;;;;;;;16.67;15.67;;;;;23.38;55.28;101237.29;111318;1257;19610;-84
2022/07/24 10:13:44;;;;;;;;;18.33;15.00;;;;;23.45;55.12;101237.66;111350;1258;20407;-84
2022/07/24 10:16:11;;;;;;;;;18.00;16.50;;;;;23.42;55.11;101236.77;111327;1258;21330;-85
2022/07/24 10:18:39;;;;;;;;;12.67;11.33;;;;;23.33;55.29;101238.79;111238;1258;19706;-84
2022/07/24 10:21:06;;;;;;;;;12.00;11.00;;;;;23.32;55.31;101239.80;111212;1258;22955;-84
2022/07/24 10:23:33;;;;;;;;;8.67;8.00;;;;;23.34;55.28;101241.46;111291;1257;21926;-84
2022/07/24 10:26:01;;;;;;;;;9.33;9.00;;;;;23.36;55.30;101238.63;111101;1258;21437;-83
2022/07/24 10:28:28;;;;;;;;;8.00;8.00;;;;;23.43;55.18;101247.79;111231;1258;20386;-84
2022/07/24 10:30:55;;;;;;;;;7.67;7.00;;;;;23.49;55.20;101246.33;111115;1258;22288;-84
2022/07/24 10:33:22;;;;;;;;;12.00;11.00;;;;;23.59;55.08;101248.63;111036;1259;19495;-85
2022/07/24 10:35:50;;;;;;;;;10.00;10.00;;;;;23.64;54.92;101249.58;111303;1258;20350;-81
2022/07/24 10:38:17;;;;;;;;;9.33;8.00;;;;;23.59;54.85;101254.05;111270;1258;19165;-83
2022/07/24 10:40:45;;;;;;;;;8.33;7.00;;;;;23.60;54.75;101250.34;111276;1257;19576;-84
2022/07/24 10:43:12;;;;;;;;;10.00;10.00;;;;;23.58;54.81;101252.59;111207;1258;20517;-83
2022/07/24 10:45:39;;;;;;;;;8.00;7.33;;;;;23.58;54.67;101251.32;111270;1257;22868;-85
2022/07/24 10:48:07;;;;;;;;;8.00;8.00;;;;;23.51;54.75;101251.39;111209;1256;19444;-81
2022/07/24 10:50:34;;;;;;;;;11.00;10.00;;;;;23.51;54.81;101254.23;111208;1258;20234;-81
2022/07/24 10:53:01;;;;;;;;;9.33;8.00;;;;;23.55;54.84;101253.13;111345;1258;19919;-82
2022/07/24 10:55:29;;;;;;;;;10.00;10.00;;;;;23.71;54.57;101252.36;111359;1258;19449;-82
2022/07/24 10:57:56;;;;;;;;;11.33;11.33;;;;;23.82;54.41;101254.55;111282;1257;23763;-82
2022/07/24 11:00:23;;;;;;;;;11.00;10.00;;;;;23.85;54.25;101253.98;111247;1258;22196;-82
2022/07/24 11:02:51;;;;;;;;;10.00;10.00;;;;;23.78;54.15;101254.40;111224;1258;23480;-81
2022/07/24 11:05:18;;;;;;;;;10.00;10.00;;;;;23.79;54.27;101258.34;111264;1258;25160;-83
2022/07/24 11:07:45;;;;;;;;;11.00;11.00;;;;;23.79;54.28;101265.29;111325;1258;24698;-82
2022/07/24 11:10:12;;;;;;;;;10.67;10.67;;;;;23.69;54.64;101258.84;111250;1257;21162;-82
2022/07/24 11:12:40;;;;;;;;;10.00;10.00;;;;;23.62;54.74;101257.95;111275;1257;20287;-82